Aldergrove, United Kingdom
Current Conditions -  °F | °C
As of 7:20 AM on Thursday 23 Oct 2014 (Local Time) from EGAA Reporting Station
Light Rain Light Rain  
Wind Chill: 54°   Ceiling: 900
Heat Index: 54°   Visibility: 5mi
Dew Point: 52°   Wind: 10mph
Humidity: 94%   Direction: 220°SW
Pressure: 29.85"   Gusts: NA
Location:  54.62°N, 6.21°W
Report Text: EGAA 230620Z 22009KT 8000 -RA SCT005 BKN009 12/11 Q1011
Loading
Personal Weather Stations






























Interactive Weather Map
Tropical Storm Tracking
New forecast layout! Learn more

10-Day Weather Forecast

Advertisements
Track Severe Weather on mobile